Time;durP1;ratioP1;P1;durP2;ratioP2;P2;SDS_P1;SDS_P2;PMS_P1;PMS_P2;Temp;Humidity;BMP_temperature;BMP_pressure;BME280_temperature;BME280_humidity;BME280_pressure;Samples;Min_cycle;Max_cycle;Signal;HPM_P1;HPM_P2
2022/06/01 00:02:13;;;;;;;57.33;41.08;;;16.20;99.90;;;;;;5055063;28;20020;-76
2022/06/01 00:04:39;;;;;;;56.63;41.95;;;16.10;99.90;;;;;;5071607;28;20017;-77
2022/06/01 00:07:05;;;;;;;60.97;42.78;;;16.10;99.90;;;;;;5071382;28;20615;-76
2022/06/01 00:09:31;;;;;;;61.00;42.17;;;16.10;99.90;;;;;;5087098;28;20086;-75
2022/06/01 00:11:57;;;;;;;60.25;40.47;;;16.10;99.90;;;;;;5070917;28;20043;-77
2022/06/01 00:14:22;;;;;;;60.17;43.75;;;16.10;99.90;;;;;;5069408;28;20099;-75
2022/06/01 00:16:49;;;;;;;52.85;42.22;;;16.10;99.90;;;;;;5070588;28;20033;-76
2022/06/01 00:19:15;;;;;;;61.83;44.93;;;16.10;99.90;;;;;;5053636;28;20036;-76
2022/06/01 00:24:25;;;;;;;66.38;46.85;;;16.20;99.90;;;;;;5071435;28;20085;-75
2022/06/01 00:26:50;;;;;;;65.53;46.60;;;16.10;99.90;;;;;;5087270;28;20024;-76
2022/06/01 00:29:17;;;;;;;72.43;48.80;;;16.20;99.90;;;;;;5071393;28;20033;-76
2022/06/01 00:31:43;;;;;;;71.47;47.15;;;16.10;99.90;;;;;;5053360;28;20029;-75
2022/06/01 00:34:08;;;;;;;72.88;47.92;;;16.10;99.90;;;;;;5071346;28;20553;-76
2022/06/01 00:36:34;;;;;;;66.47;46.88;;;16.10;99.90;;;;;;5071042;28;20048;-75
2022/06/01 00:39:00;;;;;;;64.93;45.38;;;16.20;99.90;;;;;;5071040;28;20040;-78
2022/06/01 00:41:29;;;;;;;67.40;45.15;;;16.10;99.90;;;;;;5067788;28;20620;-76
2022/06/01 00:43:55;;;;;;;74.88;47.70;;;16.20;99.90;;;;;;5066174;28;20481;-77
2022/06/01 00:46:21;;;;;;;72.28;47.72;;;16.20;99.90;;;;;;5052923;28;20513;-76
2022/06/01 00:48:53;;;;;;;67.13;45.47;;;16.20;99.90;;;;;;5087004;28;20032;-78
2022/06/01 00:51:24;;;;;;;73.30;47.05;;;16.20;99.90;;;;;;5071139;28;20073;-76
2022/06/01 00:53:53;;;;;;;65.75;42.38;;;16.20;99.90;;;;;;5071123;28;20505;-76
2022/06/01 00:56:31;;;;;;;67.88;44.53;;;16.20;99.90;;;;;;5070848;28;20024;-77
2022/06/01 00:58:59;;;;;;;62.65;44.58;;;16.20;99.90;;;;;;5059620;28;20044;-76
2022/06/01 01:01:25;;;;;;;69.22;45.17;;;16.20;99.90;;;;;;5071134;28;20390;-76
2022/06/01 01:03:58;;;;;;;68.25;45.58;;;16.20;99.90;;;;;;5053410;28;20028;-76
2022/06/01 01:06:27;;;;;;;61.78;44.40;;;16.20;99.90;;;;;;5086520;28;20044;-77
2022/06/01 01:08:54;;;;;;;65.95;44.22;;;16.20;99.90;;;;;;5070931;28;20016;-75
2022/06/01 01:11:28;;;;;;;60.57;43.33;;;16.20;99.90;;;;;;5070993;28;20020;-76
2022/06/01 01:13:57;;;;;;;66.35;43.83;;;16.20;99.90;;;;;;5070609;28;20024;-77
2022/06/01 01:16:24;;;;;;;64.18;45.78;;;16.30;99.90;;;;;;5070906;28;20386;-77
2022/06/01 01:18:52;;;;;;;59.83;44.10;;;16.30;99.90;;;;;;5002421;28;20040;-76
2022/06/01 01:21:51;;;;;;;68.88;46.38;;;16.30;99.90;;;;;;5071067;28;20021;-75
2022/06/01 01:24:26;;;;;;;68.30;47.47;;;16.30;99.90;;;;;;5072468;28;20013;-76
2022/06/01 01:26:52;;;;;;;68.10;48.13;;;16.30;99.90;;;;;;5074509;28;20031;-76
2022/06/01 01:29:39;;;;;;;62.58;45.72;;;16.30;99.90;;;;;;5074353;28;20186;-76
2022/06/01 01:32:07;;;;;;;60.88;44.72;;;16.30;99.90;;;;;;5074379;28;20024;-76
2022/06/01 01:34:35;;;;;;;60.42;44.65;;;16.30;99.90;;;;;;5089739;28;20109;-76
2022/06/01 01:37:24;;;;;;;61.05;44.22;;;16.30;99.90;;;;;;5069514;28;20032;-76
2022/06/01 01:39:53;;;;;;;58.25;43.33;;;16.30;99.90;;;;;;5066376;28;20515;-77
2022/06/01 01:42:19;;;;;;;59.45;43.78;;;16.30;99.90;;;;;;5070358;28;20020;-76
2022/06/01 01:44:58;;;;;;;57.70;43.08;;;16.30;99.90;;;;;;5074330;28;20025;-76
2022/06/01 01:47:24;;;;;;;53.10;40.88;;;16.40;99.90;;;;;;5073900;28;20125;-76
2022/06/01 01:49:50;;;;;;;52.97;38.55;;;16.40;99.90;;;;;;5074011;28;20016;-75
2022/06/01 01:52:18;;;;;;;46.83;37.70;;;16.40;99.90;;;;;;5073942;28;20039;-75
2022/06/01 01:55:33;;;;;;;45.85;35.05;;;16.40;99.90;;;;;;5078650;28;20021;-75
2022/06/01 01:58:20;;;;;;;45.70;34.67;;;16.50;99.90;;;;;;5067079;28;20397;-77
2022/06/01 02:00:52;;;;;;;43.17;35.13;;;16.50;99.90;;;;;;5056006;28;20456;-76
2022/06/01 02:03:30;;;;;;;44.80;35.45;;;16.40;99.90;;;;;;5074135;28;20039;-75
2022/06/01 02:06:31;;;;;;;41.78;34.38;;;16.40;99.90;;;;;;5073897;28;20028;-77
2022/06/01 02:09:09;;;;;;;51.20;37.42;;;16.40;99.90;;;;;;5070105;28;20086;-77
2022/06/01 02:14:37;;;;;;;50.22;37.25;;;16.40;99.90;;;;;;5073181;28;20078;-77
2022/06/01 02:17:17;;;;;;;44.47;37.15;;;16.40;99.90;;;;;;5055777;28;20024;-76
2022/06/01 02:19:49;;;;;;;52.90;39.60;;;16.40;99.90;;;;;;5073817;28;20443;-77
2022/06/01 02:22:15;;;;;;;57.72;41.60;;;16.40;99.90;;;;;;5070556;28;20032;-78
2022/06/01 02:24:42;;;;;;;58.55;42.90;;;16.40;99.90;;;;;;5089274;28;20036;-77
2022/06/01 02:27:11;;;;;;;53.65;42.65;;;16.50;99.90;;;;;;5073308;28;20020;-76
2022/06/01 02:29:47;;;;;;;61.97;47.20;;;16.60;99.90;;;;;;5073509;28;20029;-78
2022/06/01 02:32:15;;;;;;;60.33;46.50;;;16.60;99.90;;;;;;5073432;28;20111;-77
2022/06/01 02:34:44;;;;;;;64.32;47.72;;;16.60;99.90;;;;;;5073172;28;20017;-78
2022/06/01 02:37:14;;;;;;;65.72;49.45;;;16.60;99.90;;;;;;5071158;28;20024;-76
2022/06/01 02:39:44;;;;;;;61.83;50.78;;;16.60;99.90;;;;;;5073163;28;20036;-77
2022/06/01 02:42:25;;;;;;;68.40;48.85;;;16.60;99.90;;;;;;5071593;28;20024;-78
2022/06/01 02:45:06;;;;;;;68.45;51.58;;;16.50;99.90;;;;;;5062571;28;20029;-78
2022/06/01 02:47:37;;;;;;;70.30;49.45;;;16.50;99.90;;;;;;5072747;28;20524;-79
2022/06/01 02:50:05;;;;;;;68.85;50.40;;;16.60;99.90;;;;;;5072896;28;20051;-77
2022/06/01 02:52:31;;;;;;;68.18;52.17;;;16.60;99.90;;;;;;5072869;28;20024;-78
2022/06/01 02:54:57;;;;;;;67.70;52.00;;;16.70;99.90;;;;;;5072681;28;20378;-76
2022/06/01 02:57:23;;;;;;;66.40;50.63;;;16.80;99.90;;;;;;5072646;28;20031;-77
2022/06/01 02:59:50;;;;;;;65.15;50.35;;;17.00;99.90;;;;;;5072820;28;20039;-77
2022/06/01 03:02:17;;;;;;;65.72;49.38;;;17.10;99.90;;;;;;5072747;28;20024;-77
2022/06/01 03:04:44;;;;;;;74.70;51.88;;;17.30;99.90;;;;;;5072536;28;20362;-77
2022/06/01 03:07:12;;;;;;;64.82;48.03;;;17.30;99.90;;;;;;5073035;28;20017;-77
2022/06/01 03:09:37;;;;;;;;;;;17.40;99.90;;;;;;5072983;28;20032;-76
2022/06/01 03:12:05;;;;;;;59.47;48.10;;;17.40;99.90;;;;;;5071209;28;19911;-78
2022/06/01 03:14:32;;;;;;;60.33;47.95;;;17.50;99.90;;;;;;5069551;28;20056;-77
2022/06/01 03:16:57;;;;;;;59.20;46.20;;;17.50;99.90;;;;;;5088024;28;20048;-77
2022/06/01 03:19:24;;;;;;;56.03;45.00;;;17.50;99.90;;;;;;5072343;28;20052;-78
2022/06/01 03:21:50;;;;;;;58.00;46.63;;;17.50;99.90;;;;;;5072685;28;20032;-77
2022/06/01 03:24:16;;;;;;;58.22;43.80;;;17.40;99.90;;;;;;5072215;28;20112;-78
2022/06/01 03:26:43;;;;;;;46.00;39.47;;;17.40;99.90;;;;;;5072243;28;20032;-76
2022/06/01 03:29:09;;;;;;;44.65;34.55;;;17.50;99.90;;;;;;5070819;28;20146;-76
2022/06/01 03:31:34;;;;;;;37.17;30.20;;;17.50;99.90;;;;;;5072306;28;20036;-75
2022/06/01 03:34:00;;;;;;;32.17;27.35;;;17.50;99.90;;;;;;5071738;28;20032;-76
2022/06/01 03:36:26;;;;;;;28.83;25.23;;;17.50;99.70;;;;;;5068882;28;20028;-75
2022/06/01 03:38:52;;;;;;;30.23;24.48;;;17.60;99.20;;;;;;5071687;28;20028;-76
2022/06/01 03:41:18;;;;;;;28.48;24.23;;;17.70;98.90;;;;;;5072056;28;20055;-77
2022/06/01 03:46:32;;;;;;;23.83;21.23;;;18.00;97.70;;;;;;5070524;28;20058;-78
2022/06/01 03:48:57;;;;;;;26.10;21.15;;;18.20;97.10;;;;;;5071631;28;20017;-76
2022/06/01 03:51:26;;;;;;;25.50;20.10;;;18.30;96.40;;;;;;5071280;28;20016;-78
2022/06/01 03:53:51;;;;;;;21.67;17.48;;;18.50;95.90;;;;;;5087191;28;20460;-76
2022/06/01 03:56:17;;;;;;;18.20;16.35;;;18.70;94.90;;;;;;5071436;28;20069;-78
2022/06/01 03:58:43;;;;;;;15.85;14.23;;;18.90;94.40;;;;;;5071808;28;20033;-77
2022/06/01 04:01:09;;;;;;;18.40;16.15;;;19.00;93.70;;;;;;5072634;28;20062;-78
2022/06/01 04:03:35;;;;;;;18.48;15.15;;;19.10;93.30;;;;;;5072339;28;20032;-77
2022/06/01 04:06:01;;;;;;;17.33;15.27;;;19.30;92.90;;;;;;5071704;28;20024;-76
2022/06/01 04:08:27;;;;;;;18.58;14.90;;;19.50;92.70;;;;;;5071596;28;20444;-77
2022/06/01 04:10:52;;;;;;;19.58;13.95;;;19.70;91.30;;;;;;5071591;28;20027;-76
2022/06/01 04:13:18;;;;;;;17.42;14.15;;;19.80;90.50;;;;;;5061532;28;20075;-77
2022/06/01 04:15:44;;;;;;;18.58;13.63;;;19.90;90.20;;;;;;5071408;28;20012;-76
2022/06/01 04:18:10;;;;;;;13.80;12.15;;;20.00;89.80;;;;;;5071546;28;20028;-76
2022/06/01 04:20:36;;;;;;;13.55;12.13;;;20.20;89.40;;;;;;5071702;28;20727;-76
2022/06/01 04:23:02;;;;;;;15.70;11.23;;;20.40;88.30;;;;;;5071720;28;20119;-77
2022/06/01 04:25:30;;;;;;;13.52;10.02;;;20.50;87.20;;;;;;5071073;28;20154;-76
2022/06/01 04:27:56;;;;;;;16.83;10.27;;;20.40;86.40;;;;;;5071359;28;20028;-75
2022/06/01 04:30:22;;;;;;;11.10;9.98;;;20.50;85.60;;;;;;5071435;28;20039;-78
2022/06/01 04:32:50;;;;;;;13.13;11.10;;;20.50;86.20;;;;;;5070489;28;20032;-77
2022/06/01 04:35:18;;;;;;;15.23;11.85;;;20.40;85.40;;;;;;5086927;28;20036;-76
2022/06/01 04:37:44;;;;;;;12.93;10.48;;;20.40;85.30;;;;;;5071536;28;20492;-77
2022/06/01 04:40:12;;;;;;;14.68;9.43;;;20.40;84.90;;;;;;5053633;28;20113;-77
2022/06/01 04:42:39;;;;;;;10.65;9.40;;;20.50;84.60;;;;;;5067914;28;20021;-76
2022/06/01 04:45:06;;;;;;;10.98;9.23;;;20.70;84.30;;;;;;5070979;28;20028;-77
2022/06/01 04:47:33;;;;;;;14.27;10.00;;;20.90;83.80;;;;;;5086537;28;20052;-76
2022/06/01 04:49:59;;;;;;;13.02;8.55;;;21.10;82.80;;;;;;5071067;28;20492;-77
2022/06/01 04:52:25;;;;;;;11.45;9.15;;;21.20;81.90;;;;;;5053139;28;20028;-76
2022/06/01 04:54:51;;;;;;;11.60;9.43;;;21.20;80.50;;;;;;5070968;28;20028;-76
2022/06/01 04:57:17;;;;;;;11.27;8.18;;;21.10;80.30;;;;;;5071339;28;20074;-77
2022/06/01 04:59:43;;;;;;;10.35;7.55;;;21.10;81.60;;;;;;5074800;28;20116;-76
2022/06/01 05:02:08;;;;;;;8.73;7.82;;;21.30;80.90;;;;;;5074558;28;20029;-76
2022/06/01 05:04:34;;;;;;;10.02;8.23;;;21.50;80.60;;;;;;5074714;28;20062;-77
2022/06/01 05:07:00;;;;;;;9.02;8.07;;;21.90;78.00;;;;;;5075035;28;20072;-77
2022/06/01 05:09:27;;;;;;;11.10;8.55;;;22.60;76.30;;;;;;5083619;28;20086;-75
2022/06/01 05:11:53;;;;;;;9.07;8.23;;;23.80;73.80;;;;;;5074917;28;20427;-78
2022/06/01 05:14:19;;;;;;;10.70;8.07;;;25.00;70.20;;;;;;5066820;28;20032;-78
2022/06/01 05:16:44;;;;;;;11.45;7.35;;;25.70;66.50;;;;;;5074770;28;20284;-77
2022/06/01 05:19:10;;;;;;;9.93;7.18;;;26.50;63.70;;;;;;5074305;28;20485;-76
2022/06/01 05:21:36;;;;;;;8.13;7.32;;;27.20;61.10;;;;;;5074530;28;20028;-77
2022/06/01 05:24:02;;;;;;;9.10;6.97;;;27.90;58.60;;;;;;5074297;28;20019;-79
2022/06/01 05:26:28;;;;;;;8.55;7.10;;;28.60;56.90;;;;;;5074690;28;20040;-77
2022/06/01 05:28:53;;;;;;;10.52;6.70;;;29.10;55.70;;;;;;5074393;28;20477;-80
2022/06/01 05:31:20;;;;;;;8.75;6.97;;;29.80;53.40;;;;;;5074523;28;20020;-77
2022/06/01 05:33:46;;;;;;;7.60;6.53;;;30.20;51.80;;;;;;5074091;28;20099;-77
2022/06/01 05:36:13;;;;;;;7.72;6.50;;;;;;;;;;5070865;28;20028;-77
2022/06/01 05:38:42;;;;;;;9.70;6.43;;;30.60;49.90;;;;;;5073811;28;20086;-77
2022/06/01 05:41:08;;;;;;;9.82;6.53;;;30.90;49.10;;;;;;5055841;28;20032;-76
2022/06/01 05:43:35;;;;;;;10.80;7.53;;;31.00;48.70;;;;;;5051838;28;20025;-78
2022/06/01 05:46:02;;;;;;;9.55;7.00;;;30.50;49.40;;;;;;5056110;28;20104;-78
2022/06/01 05:48:28;;;;;;;11.35;8.25;;;30.00;49.20;;;;;;5074818;28;20027;-76
2022/06/01 05:50:54;;;;;;;8.93;5.85;;;29.90;49.30;;;;;;5074756;28;20097;-76
2022/06/01 05:53:20;;;;;;;9.32;6.57;;;30.20;49.30;;;;;;5055793;28;20535;-77
2022/06/01 05:55:46;;;;;;;5.22;4.72;;;31.00;48.10;;;;;;5073854;28;20024;-78
2022/06/01 05:58:32;;;;;;;6.27;5.43;;;31.70;46.10;;;;;;5073716;28;20145;-78
2022/06/01 06:01:03;;;;;;;6.35;4.70;;;32.30;45.90;;;;;;5066396;28;20025;-76
2022/06/01 06:03:29;;;;;;;8.52;6.35;;;32.60;44.70;;;;;;5073607;28;20028;-77
2022/06/01 06:06:15;;;;;;;7.40;6.00;;;33.20;43.90;;;;;;5073478;28;20029;-76
2022/06/01 06:08:54;;;;;;;11.10;5.75;;;33.60;43.60;;;;;;5069865;28;20017;-79
2022/06/01 06:11:21;;;;;;;8.32;5.88;;;34.60;42.80;;;;;;5073368;28;20024;-79
2022/06/01 06:13:47;;;;;;;9.63;6.07;;;34.40;40.90;;;;;;5055544;28;20070;-80
2022/06/01 06:16:15;;;;;;;10.45;6.90;;;34.10;40.40;;;;;;5055063;28;20024;-78
2022/06/01 06:18:41;;;;;;;7.25;5.47;;;33.60;41.00;;;;;;5072820;28;20395;-77
2022/06/01 06:21:07;;;;;;;7.70;5.25;;;34.00;41.10;;;;;;5055036;28;20020;-78
2022/06/01 06:23:33;;;;;;;9.20;6.90;;;35.10;39.70;;;;;;5073188;28;20139;-78
2022/06/01 06:25:59;;;;;;;11.52;5.25;;;36.00;38.80;;;;;;5073159;28;20032;-77
2022/06/01 06:28:25;;;;;;;12.23;5.80;;;37.10;37.60;;;;;;5073145;28;20025;-77
2022/06/01 06:30:51;;;;;;;11.38;5.50;;;36.90;36.30;;;;;;5072980;28;20024;-78
2022/06/01 06:33:18;;;;;;;8.90;5.82;;;36.20;37.10;;;;;;5072973;28;20051;-77
2022/06/01 06:35:44;;;;;;;5.88;4.57;;;36.20;37.50;;;;;;5069291;28;20089;-78
2022/06/01 06:38:15;;;;;;;9.23;5.50;;;37.60;38.00;;;;;;5072954;28;20020;-77
2022/06/01 06:40:40;;;;;;;7.10;4.82;;;38.20;35.90;;;;;;5072983;28;20024;-78
2022/06/01 06:43:06;;;;;;;6.17;4.93;;;38.40;34.40;;;;;;5068082;28;20107;-75
2022/06/01 06:45:32;;;;;;;7.75;4.78;;;38.00;34.40;;;;;;5072637;28;20265;-77
2022/06/01 06:47:58;;;;;;;9.55;5.93;;;;;;;;;;5072002;28;20064;-79
2022/06/01 06:50:24;;;;;;;9.32;4.07;;;39.30;33.30;;;;;;5072202;28;20017;-78
2022/06/01 06:52:50;;;;;;;11.05;4.65;;;39.40;33.00;;;;;;5054458;28;20369;-78
2022/06/01 06:55:15;;;;;;;8.45;4.15;;;39.70;32.30;;;;;;5072632;28;20397;-77
2022/06/01 06:57:43;;;;;;;10.38;3.70;;;39.90;31.90;;;;;;5054691;28;20028;-80
2022/06/01 07:00:10;;;;;;;8.75;3.72;;;39.70;31.30;;;;;;5071870;28;20024;-80
2022/06/01 07:02:36;;;;;;;14.77;5.47;;;39.10;31.70;;;;;;5074367;28;20028;-82
2022/06/01 07:05:06;;;;;;;7.82;3.65;;;39.00;32.00;;;;;;5073109;28;20415;-82
2022/06/01 07:07:32;;;;;;;6.38;5.85;;;38.60;31.90;;;;;;5074329;28;20138;-81
2022/06/01 07:09:57;;;;;;;7.88;3.63;;;38.00;32.00;;;;;;5057169;28;20032;-81
2022/06/01 07:12:23;;;;;;;7.18;3.67;;;37.80;32.60;;;;;;5079751;28;20495;-81
2022/06/01 07:14:49;;;;;;;8.10;3.58;;;38.40;32.40;;;;;;5078100;28;20101;-80
2022/06/01 07:17:15;;;;;;;4.60;3.10;;;39.50;32.00;;;;;;5073875;28;20078;-81
2022/06/01 07:19:40;;;;;;;6.10;3.70;;;39.90;30.60;;;;;;5073224;28;20040;-81
2022/06/01 07:22:06;;;;;;;5.07;2.97;;;39.50;31.00;;;;;;5073154;28;20102;-81
2022/06/01 07:24:32;;;;;;;5.72;4.05;;;39.70;30.70;;;;;;5073673;28;20474;-83
2022/06/01 07:26:58;;;;;;;9.95;3.35;;;40.30;30.20;;;;;;5073846;28;20036;-82
2022/06/01 07:29:24;;;;;;;9.32;3.65;;;39.80;30.30;;;;;;5054881;28;20017;-80
2022/06/01 07:31:50;;;;;;;10.65;3.30;;;40.60;30.50;;;;;;5072966;28;20081;-81
2022/06/01 07:34:16;;;;;;;3.30;2.75;;;41.60;30.10;;;;;;5077859;28;20392;-82
2022/06/01 07:36:43;;;;;;;7.43;2.88;;;41.70;29.00;;;;;;5084047;28;20020;-81
2022/06/01 07:44:49;;;;;;;3.83;2.35;;;;;;;;;;5072920;28;20071;-80
2022/06/01 07:47:15;;;;;;;6.80;2.88;;;;;;;;;;5071651;28;20143;-80
2022/06/01 07:49:42;;;;;;;6.25;2.45;;;;;;;;;;5072435;28;20025;-81
2022/06/01 07:52:12;;;;;;;7.20;2.88;;;40.90;28.80;;;;;;5072910;28;20049;-83
2022/06/01 07:54:39;;;;;;;5.82;2.83;;;40.60;28.50;;;;;;5072782;28;20036;-81
2022/06/01 07:57:06;;;;;;;7.78;2.25;;;39.90;29.30;;;;;;5087677;28;20051;-82
2022/06/01 07:59:32;;;;;;;8.25;2.60;;;39.90;29.30;;;;;;5072187;28;20486;-83
2022/06/01 08:01:58;;;;;;;3.92;2.13;;;41.30;28.90;;;;;;5072187;28;20044;-81
2022/06/01 08:04:28;;;;;;;4.15;1.85;;;41.90;28.10;;;;;;5054878;28;20058;-82
2022/06/01 08:06:54;;;;;;;6.18;3.20;;;41.60;28.20;;;;;;5073129;28;20046;-82
2022/06/01 08:09:20;;;;;;;6.05;2.70;;;41.50;28.60;;;;;;5072471;28;20020;-79
2022/06/01 08:14:33;;;;;;;6.25;2.40;;;40.00;29.30;;;;;;5072193;28;20097;-82
2022/06/01 08:16:59;;;;;;;8.07;2.75;;;38.30;29.50;;;;;;5072108;28;20017;-81
2022/06/01 08:19:25;;;;;;;6.35;3.25;;;38.40;30.50;;;;;;5070858;28;20029;-81
2022/06/01 08:21:50;;;;;;;4.47;2.53;;;39.10;29.90;;;;;;5088026;28;20114;-83
2022/06/01 08:24:16;;;;;;;5.90;2.78;;;39.40;30.00;;;;;;5074238;28;20100;-81
2022/06/01 08:26:42;;;;;;;6.47;2.50;;;39.40;30.00;;;;;;5075731;28;20036;-82
2022/06/01 08:29:08;;;;;;;7.13;2.85;;;39.30;30.00;;;;;;5071490;28;20028;-81
2022/06/01 08:31:34;;;;;;;10.52;5.22;;;38.80;30.00;;;;;;5071705;28;20028;-82
2022/06/01 08:34:03;;;;;;;4.88;3.17;;;37.50;30.70;;;;;;5075398;28;20433;-81
2022/06/01 08:36:29;;;;;;;9.20;3.20;;;37.00;31.50;;;;;;5057387;28;20495;-81
2022/06/01 08:38:55;;;;;;;7.03;3.30;;;37.60;31.40;;;;;;5075772;28;20158;-81
2022/06/01 08:41:25;;;;;;;6.68;3.20;;;38.50;31.10;;;;;;5076090;28;20120;-83
2022/06/01 08:43:58;;;;;;;7.88;3.38;;;39.80;30.00;;;;;;5075602;28;20834;-81
2022/06/01 08:46:26;;;;;;;12.23;3.30;;;40.40;29.40;;;;;;5057890;28;20036;-82
2022/06/01 08:49:28;;;;;;;7.07;3.33;;;41.50;29.20;;;;;;5075857;28;20028;-81
2022/06/01 08:51:54;;;;;;;5.60;2.67;;;43.00;28.80;;;;;;5042332;28;20091;-80
2022/06/01 08:54:20;;;;;;;;;;;42.60;27.60;;;;;;5075643;28;20048;-81
2022/06/01 08:56:49;;;;;;;8.25;4.82;;;41.90;28.60;;;;;;5075620;28;19931;-82
2022/06/01 08:59:26;;;;;;;3.72;3.20;;;40.80;28.60;;;;;;5075553;28;20134;-81
2022/06/01 09:01:57;;;;;;;10.38;3.60;;;39.90;29.10;;;;;;5057516;28;20039;-83
2022/06/01 09:04:26;;;;;;;5.00;2.67;;;40.10;29.40;;;;;;5075974;28;20024;-82
2022/06/01 09:06:58;;;;;;;5.53;2.58;;;41.50;28.90;;;;;;5057143;28;20028;-83
2022/06/01 09:09:30;;;;;;;87.63;9.25;;;42.10;28.30;;;;;;5074380;28;20139;-82
2022/06/01 09:11:57;;;;;;;7.07;2.92;;;42.10;28.40;;;;;;5075143;28;20044;-83
2022/06/01 09:14:30;;;;;;;7.55;2.97;;;41.90;28.30;;;;;;5075741;28;20094;-81
2022/06/01 09:16:57;;;;;;;10.15;3.00;;;42.10;28.50;;;;;;5058387;28;20029;-82
2022/06/01 09:22:37;;;;;;;7.20;3.03;;;42.30;28.00;;;;;;5092801;28;20096;-81
2022/06/01 09:25:00;;;;;;;8.10;2.75;;;43.90;27.70;;;;;;5075787;28;20039;-82
2022/06/01 09:27:52;;;;;;;5.22;2.28;;;45.00;30.40;;;;;;5075380;28;20449;-83
2022/06/01 09:30:20;;;;;;;4.25;2.78;;;45.80;27.10;;;;;;5075304;28;20021;-82
2022/06/01 09:33:01;;;;;;;9.82;3.70;;;45.30;26.40;;;;;;5074830;28;20493;-81
2022/06/01 09:35:33;;;;;;;6.80;2.70;;;43.70;27.00;;;;;;5057525;28;20036;-81
2022/06/01 09:38:11;;;;;;;9.63;3.35;;;40.70;28.00;;;;;;5079184;28;20095;-80
2022/06/01 09:40:37;;;;;;;8.73;3.17;;;39.30;29.30;;;;;;5062261;28;20032;-81
2022/06/01 09:43:03;;;;;;;7.35;2.70;;;40.80;29.30;;;;;;5064147;28;20028;-83
2022/06/01 09:45:44;;;;;;;6.97;2.60;;;42.40;28.90;;;;;;5047436;28;20486;-80
2022/06/01 09:48:21;;;;;;;33.20;5.32;;;42.60;27.90;;;;;;5076706;28;20047;-82
2022/06/01 09:51:01;;;;;;;13.68;3.85;;;42.00;28.70;;;;;;5077730;28;20078;-84
2022/06/01 09:53:36;;;;;;;9.73;3.55;;;41.10;28.50;;;;;;5076622;28;20023;-81
2022/06/01 09:56:03;;;;;;;23.17;4.47;;;40.40;29.40;;;;;;5075461;28;20123;-81
2022/06/01 10:06:57;;;;;;;9.70;3.53;;;39.50;29.90;;;;;;5075136;28;20422;-80
2022/06/01 10:09:29;;;;;;;7.00;4.00;;;40.10;29.40;;;;;;5074218;28;20339;-81
2022/06/01 10:11:56;;;;;;;9.60;3.97;;;39.90;29.40;;;;;;5074369;28;20029;-79
2022/06/01 10:14:32;;;;;;;6.18;3.05;;;40.20;29.10;;;;;;5061481;28;20135;-81
2022/06/01 10:17:01;;;;;;;;;;;40.30;29.10;;;;;;5074384;28;20078;-80
2022/06/01 10:19:29;;;;;;;8.65;3.25;;;40.20;29.60;;;;;;5074798;28;20407;-82
2022/06/01 10:22:14;;;;;;;5.63;3.83;;;39.20;29.80;;;;;;5074838;28;20033;-82
2022/06/01 10:25:05;;;;;;;9.70;3.97;;;37.30;30.90;;;;;;5062450;28;20409;-82
2022/06/01 10:27:39;;;;;;;4.88;3.60;;;37.10;31.40;;;;;;5055956;28;20047;-81
2022/06/01 10:30:24;;;;;;;6.28;3.60;;;36.00;32.40;;;;;;5045392;28;20028;-83
2022/06/01 10:32:56;;;;;;;5.82;4.10;;;34.50;33.70;;;;;;5073061;28;20539;-81
2022/06/01 10:35:33;;;;;;;6.20;3.33;;;33.10;34.80;;;;;;5073694;28;20068;-83
2022/06/01 10:38:17;;;;;;;7.22;3.70;;;31.90;36.10;;;;;;5090192;28;20492;-82
2022/06/01 10:41:05;;;;;;;7.13;4.50;;;30.60;38.20;;;;;;5073485;28;20035;-81
2022/06/01 10:43:49;;;;;;;8.45;4.28;;;30.00;39.70;;;;;;5062955;28;20103;-83
2022/06/01 10:46:57;;;;;;;8.45;4.55;;;29.40;41.20;;;;;;5073553;28;20040;-81
2022/06/01 10:49:35;;;;;;;8.45;4.38;;;28.90;42.10;;;;;;5034170;28;20385;-82
2022/06/01 10:52:32;;;;;;;9.70;4.57;;;28.90;42.80;;;;;;5062330;28;20029;-82
2022/06/01 10:55:15;;;;;;;15.55;4.82;;;28.50;43.30;;;;;;5068337;28;20035;-80
2022/06/01 10:57:45;;;;;;;12.77;5.20;;;28.30;44.50;;;;;;5043764;28;20429;-81
2022/06/01 11:00:15;;;;;;;7.03;4.95;;;28.40;45.50;;;;;;5073235;28;20035;-81
2022/06/01 11:02:58;;;;;;;10.93;5.40;;;28.40;45.30;;;;;;5073649;28;20020;-81
2022/06/01 11:05:43;;;;;;;5.72;5.05;;;28.00;46.10;;;;;;5062679;28;20591;-82
2022/06/01 11:08:37;;;;;;;10.43;4.85;;;28.00;46.70;;;;;;5075808;28;20021;-83
2022/06/01 11:11:23;;;;;;;5.65;3.97;;;28.00;47.00;;;;;;5084266;28;20032;-80
2022/06/01 11:14:09;;;;;;;6.53;3.93;;;28.20;46.90;;;;;;5066841;28;20498;-81
2022/06/01 11:16:40;;;;;;;6.93;4.00;;;28.10;46.60;;;;;;5073829;28;20077;-82
2022/06/01 11:19:43;;;;;;;5.32;3.10;;;27.70;48.10;;;;;;5073129;28;20382;-83
2022/06/01 11:22:26;;;;;;;7.50;2.85;;;27.50;48.10;;;;;;5054595;28;20476;-83
2022/06/01 11:25:12;;;;;;;7.95;4.10;;;27.50;48.70;;;;;;5071854;28;20036;-82
2022/06/01 11:27:54;;;;;;;5.53;2.92;;;27.50;49.40;;;;;;5073072;28;20428;-82
2022/06/01 11:30:21;;;;;;;8.95;4.30;;;27.50;49.00;;;;;;5054734;28;20115;-81
2022/06/01 11:32:55;;;;;;;5.70;4.30;;;27.50;49.10;;;;;;5072682;28;20020;-82
2022/06/01 11:35:31;;;;;;;6.28;3.28;;;27.50;49.50;;;;;;5055059;28;20020;-82
2022/06/01 11:38:12;;;;;;;6.00;3.37;;;27.20;49.50;;;;;;5054686;28;20401;-82
2022/06/01 11:40:42;;;;;;;8.68;2.92;;;26.90;50.00;;;;;;5072698;28;20375;-83
2022/06/01 11:43:17;;;;;;;7.07;3.10;;;26.80;51.20;;;;;;5071877;28;20493;-82
2022/06/01 11:45:48;;;;;;;5.90;2.53;;;26.90;51.40;;;;;;5072669;28;20064;-81
2022/06/01 11:48:23;;;;;;;3.92;2.75;;;26.90;51.30;;;;;;5054932;28;20036;-81
2022/06/01 11:51:01;;;;;;;8.77;2.70;;;26.60;52.30;;;;;;5072652;28;20048;-82
2022/06/01 11:54:08;;;;;;;7.47;3.10;;;26.20;53.70;;;;;;5072965;28;20055;-81
2022/06/01 11:56:54;;;;;;;9.50;3.00;;;26.20;54.10;;;;;;5072778;28;20059;-81
2022/06/01 11:59:32;;;;;;;9.15;3.40;;;26.50;54.40;;;;;;5055058;28;20450;-82
2022/06/01 12:02:00;;;;;;;11.35;3.92;;;26.80;54.10;;;;;;5075925;28;20395;-82
2022/06/01 12:04:36;;;;;;;8.55;3.10;;;27.00;53.80;;;;;;5078311;28;20078;-80
2022/06/01 12:07:37;;;;;;;7.88;3.13;;;26.90;53.10;;;;;;5056390;28;20033;-80
2022/06/01 12:10:07;;;;;;;7.45;3.88;;;26.60;53.80;;;;;;5072146;28;20115;-84
2022/06/01 12:12:33;;;;;;;5.03;3.20;;;26.60;54.10;;;;;;5072917;28;20420;-82
2022/06/01 12:15:26;;;;;;;15.52;4.20;;;26.30;54.50;;;;;;5072877;28;20074;-80
2022/06/01 12:18:14;;;;;;;10.43;3.80;;;26.00;55.10;;;;;;5063652;28;20121;-82
2022/06/01 12:20:40;;;;;;;8.02;4.35;;;25.80;56.20;;;;;;5059714;28;20020;-81
2022/06/01 12:28:54;;;;;;;10.02;2.97;;;25.30;59.00;;;;;;5075774;28;20596;-81
2022/06/01 12:31:26;;;;;;;9.32;3.78;;;25.60;57.20;;;;;;5063306;28;20017;-81
2022/06/01 12:34:30;;;;;;;11.80;4.30;;;25.50;57.50;;;;;;5074191;28;20032;-80
2022/06/01 12:37:06;;;;;;;5.13;3.58;;;25.20;58.10;;;;;;5062421;28;20397;-82
2022/06/01 12:39:38;;;;;;;4.68;3.70;;;25.00;58.30;;;;;;5063227;28;20048;-82
2022/06/01 12:42:13;;;;;;;10.52;3.78;;;24.90;58.70;;;;;;5061813;28;20064;-80
2022/06/01 12:44:42;;;;;;;6.18;3.47;;;24.90;58.90;;;;;;5070911;28;20028;-83
2022/06/01 12:47:25;;;;;;;8.13;3.25;;;24.90;58.30;;;;;;5054027;28;20052;-83
2022/06/01 12:49:51;;;;;;;9.80;3.78;;;24.70;58.70;;;;;;5072287;28;20040;-82
2022/06/01 12:52:21;;;;;;;4.90;2.72;;;24.90;58.30;;;;;;5072243;28;20052;-81
2022/06/01 12:54:54;;;;;;;9.10;2.95;;;25.20;57.30;;;;;;5076230;28;20042;-80
2022/06/01 12:57:37;;;;;;;5.53;2.33;;;25.00;57.40;;;;;;5075528;28;20389;-83
2022/06/01 13:00:21;;;;;;;10.30;3.30;;;25.00;57.10;;;;;;5088921;28;20031;-81
2022/06/01 13:02:47;;;;;;;8.70;3.15;;;25.00;57.20;;;;;;5074058;28;20032;-82
2022/06/01 13:05:20;;;;;;;7.80;3.00;;;24.90;57.40;;;;;;5071551;28;20099;-81
2022/06/01 13:07:50;;;;;;;10.57;3.28;;;25.10;57.10;;;;;;5071942;28;20495;-81
2022/06/01 13:10:25;;;;;;;5.90;3.38;;;25.20;56.20;;;;;;5071911;28;20450;-81
2022/06/01 13:13:11;;;;;;;7.45;3.90;;;25.30;55.90;;;;;;5053506;28;20029;-81
2022/06/01 13:15:38;;;;;;;9.77;3.28;;;25.40;55.80;;;;;;5059269;28;20023;-81
2022/06/01 13:18:11;;;;;;;7.07;3.33;;;25.20;55.30;;;;;;5074282;28;20451;-81
2022/06/01 13:20:46;;;;;;;18.55;3.58;;;25.10;55.60;;;;;;5075615;28;20041;-82
2022/06/01 13:23:31;;;;;;;5.25;2.55;;;25.00;55.60;;;;;;5056733;28;20036;-81
2022/06/01 13:26:02;;;;;;;5.78;2.42;;;24.90;55.10;;;;;;5057365;28;20071;-81
2022/06/01 13:28:28;;;;;;;7.93;3.15;;;24.70;55.40;;;;;;5075159;28;20044;-80
2022/06/01 13:30:56;;;;;;;7.03;2.83;;;24.60;55.90;;;;;;5074732;28;20048;-82
2022/06/01 13:33:36;;;;;;;12.65;4.38;;;24.40;55.90;;;;;;5075206;28;20485;-81
2022/06/01 13:36:09;;;;;;;6.35;3.72;;;24.40;56.70;;;;;;5075895;28;20056;-80